sensor_id;sensor_type;location;lat;lon;timestamp;P1;durP1;ratioP1;P2;durP2;ratioP2
54923;SDS011;40825;52.270;20.984;2023-03-31T00:01:33;12.80;;;7.60;;
54923;SDS011;40825;52.270;20.984;2023-03-31T00:03:59;11.30;;;6.70;;
54923;SDS011;40825;52.270;20.984;2023-03-31T00:06:33;11.70;;;6.90;;
54923;SDS011;40825;52.270;20.984;2023-03-31T00:09:05;14.00;;;7.40;;
54923;SDS011;40825;52.270;20.984;2023-03-31T00:11:40;11.50;;;5.90;;
54923;SDS011;40825;52.270;20.984;2023-03-31T00:14:06;13.80;;;7.40;;
54923;SDS011;40825;52.270;20.984;2023-03-31T00:16:36;12.50;;;6.60;;
54923;SDS011;40825;52.270;20.984;2023-03-31T00:19:03;13.00;;;7.10;;
54923;SDS011;40825;52.270;20.984;2023-03-31T00:21:29;13.30;;;7.20;;
54923;SDS011;40825;52.270;20.984;2023-03-31T00:23:59;11.80;;;6.60;;
54923;SDS011;40825;52.270;20.984;2023-03-31T00:26:27;13.60;;;7.50;;
54923;SDS011;40825;52.270;20.984;2023-03-31T00:28:53;13.50;;;7.30;;
54923;SDS011;40825;52.270;20.984;2023-03-31T00:31:19;14.40;;;6.90;;
54923;SDS011;40825;52.270;20.984;2023-03-31T00:33:46;15.40;;;7.30;;
54923;SDS011;40825;52.270;20.984;2023-03-31T00:36:12;14.70;;;7.70;;
54923;SDS011;40825;52.270;20.984;2023-03-31T00:38:42;14.30;;;6.90;;
54923;SDS011;40825;52.270;20.984;2023-03-31T00:41:10;14.40;;;7.20;;
54923;SDS011;40825;52.270;20.984;2023-03-31T00:43:36;12.50;;;6.60;;
54923;SDS011;40825;52.270;20.984;2023-03-31T00:46:18;10.70;;;6.40;;
54923;SDS011;40825;52.270;20.984;2023-03-31T00:48:54;13.20;;;6.70;;
54923;SDS011;40825;52.270;20.984;2023-03-31T00:51:22;12.50;;;6.70;;
54923;SDS011;40825;52.270;20.984;2023-03-31T00:53:55;13.50;;;6.70;;
54923;SDS011;40825;52.270;20.984;2023-03-31T00:56:29;13.40;;;7.20;;
54923;SDS011;40825;52.270;20.984;2023-03-31T00:59:00;12.10;;;7.40;;
54923;SDS011;40825;52.270;20.984;2023-03-31T01:01:28;13.10;;;6.40;;
54923;SDS011;40825;52.270;20.984;2023-03-31T01:03:54;11.50;;;6.30;;
54923;SDS011;40825;52.270;20.984;2023-03-31T01:06:21;12.50;;;6.80;;
54923;SDS011;40825;52.270;20.984;2023-03-31T01:08:50;11.40;;;6.20;;
54923;SDS011;40825;52.270;20.984;2023-03-31T01:11:20;13.70;;;8.10;;
54923;SDS011;40825;52.270;20.984;2023-03-31T01:13:49;14.00;;;6.50;;
54923;SDS011;40825;52.270;20.984;2023-03-31T01:16:17;12.50;;;6.70;;
54923;SDS011;40825;52.270;20.984;2023-03-31T01:18:43;12.10;;;6.80;;
54923;SDS011;40825;52.270;20.984;2023-03-31T01:57:11;13.00;;;6.90;;
54923;SDS011;40825;52.270;20.984;2023-03-31T02:02:42;12.20;;;6.30;;
54923;SDS011;40825;52.270;20.984;2023-03-31T02:05:17;11.70;;;6.30;;
54923;SDS011;40825;52.270;20.984;2023-03-31T02:07:48;12.10;;;7.00;;
54923;SDS011;40825;52.270;20.984;2023-03-31T02:10:28;13.80;;;7.30;;
54923;SDS011;40825;52.270;20.984;2023-03-31T02:15:25;12.60;;;6.30;;
54923;SDS011;40825;52.270;20.984;2023-03-31T02:17:56;11.40;;;6.20;;
54923;SDS011;40825;52.270;20.984;2023-03-31T02:20:24;11.40;;;7.20;;
54923;SDS011;40825;52.270;20.984;2023-03-31T02:22:53;11.40;;;6.30;;
54923;SDS011;40825;52.270;20.984;2023-03-31T02:25:37;11.40;;;6.60;;
54923;SDS011;40825;52.270;20.984;2023-03-31T02:28:20;11.90;;;7.20;;
54923;SDS011;40825;52.270;20.984;2023-03-31T02:30:49;12.10;;;6.20;;
54923;SDS011;40825;52.270;20.984;2023-03-31T02:33:17;13.90;;;7.50;;
54923;SDS011;40825;52.270;20.984;2023-03-31T02:35:43;13.10;;;6.80;;
54923;SDS011;40825;52.270;20.984;2023-03-31T02:38:08;11.70;;;7.40;;
54923;SDS011;40825;52.270;20.984;2023-03-31T02:40:35;11.30;;;6.60;;
54923;SDS011;40825;52.270;20.984;2023-03-31T02:43:01;15.10;;;8.00;;
54923;SDS011;40825;52.270;20.984;2023-03-31T02:45:40;11.70;;;6.40;;
54923;SDS011;40825;52.270;20.984;2023-03-31T02:48:13;12.40;;;6.00;;
54923;SDS011;40825;52.270;20.984;2023-03-31T02:53:42;14.80;;;7.40;;
54923;SDS011;40825;52.270;20.984;2023-03-31T03:04:15;13.20;;;7.30;;
54923;SDS011;40825;52.270;20.984;2023-03-31T03:10:00;11.30;;;6.80;;
54923;SDS011;40825;52.270;20.984;2023-03-31T03:20:23;11.90;;;6.30;;
54923;SDS011;40825;52.270;20.984;2023-03-31T03:22:49;11.50;;;7.60;;
54923;SDS011;40825;52.270;20.984;2023-03-31T03:25:15;12.80;;;6.50;;
54923;SDS011;40825;52.270;20.984;2023-03-31T03:27:42;10.60;;;7.00;;
54923;SDS011;40825;52.270;20.984;2023-03-31T03:30:08;11.30;;;7.10;;
54923;SDS011;40825;52.270;20.984;2023-03-31T03:32:35;12.30;;;7.00;;
54923;SDS011;40825;52.270;20.984;2023-03-31T03:35:02;10.00;;;6.60;;
54923;SDS011;40825;52.270;20.984;2023-03-31T03:37:30;13.10;;;6.90;;
54923;SDS011;40825;52.270;20.984;2023-03-31T03:39:56;11.50;;;6.70;;
54923;SDS011;40825;52.270;20.984;2023-03-31T03:42:22;14.30;;;7.10;;
54923;SDS011;40825;52.270;20.984;2023-03-31T03:44:47;11.90;;;6.40;;
54923;SDS011;40825;52.270;20.984;2023-03-31T03:47:13;12.00;;;6.50;;
54923;SDS011;40825;52.270;20.984;2023-03-31T03:49:39;13.50;;;7.50;;
54923;SDS011;40825;52.270;20.984;2023-03-31T03:52:04;11.10;;;6.80;;
54923;SDS011;40825;52.270;20.984;2023-03-31T03:54:30;13.20;;;7.40;;
54923;SDS011;40825;52.270;20.984;2023-03-31T03:56:55;11.40;;;6.50;;
54923;SDS011;40825;52.270;20.984;2023-03-31T03:59:21;13.70;;;6.90;;
54923;SDS011;40825;52.270;20.984;2023-03-31T04:01:47;12.40;;;7.20;;
54923;SDS011;40825;52.270;20.984;2023-03-31T04:04:12;13.80;;;7.70;;
54923;SDS011;40825;52.270;20.984;2023-03-31T04:06:38;14.30;;;7.50;;
54923;SDS011;40825;52.270;20.984;2023-03-31T04:09:03;12.00;;;6.60;;
54923;SDS011;40825;52.270;20.984;2023-03-31T04:11:29;12.10;;;7.30;;
54923;SDS011;40825;52.270;20.984;2023-03-31T04:13:55;12.90;;;7.20;;
54923;SDS011;40825;52.270;20.984;2023-03-31T04:16:20;14.00;;;7.90;;
54923;SDS011;40825;52.270;20.984;2023-03-31T04:18:47;13.40;;;7.60;;
54923;SDS011;40825;52.270;20.984;2023-03-31T04:21:13;12.90;;;7.50;;
54923;SDS011;40825;52.270;20.984;2023-03-31T04:23:47;14.00;;;7.80;;
54923;SDS011;40825;52.270;20.984;2023-03-31T04:26:15;14.90;;;8.00;;
54923;SDS011;40825;52.270;20.984;2023-03-31T04:28:42;13.80;;;8.30;;
54923;SDS011;40825;52.270;20.984;2023-03-31T04:31:11;14.40;;;7.30;;
54923;SDS011;40825;52.270;20.984;2023-03-31T04:33:41;12.80;;;7.70;;
54923;SDS011;40825;52.270;20.984;2023-03-31T04:36:11;15.30;;;9.20;;
54923;SDS011;40825;52.270;20.984;2023-03-31T04:38:46;14.30;;;7.90;;
54923;SDS011;40825;52.270;20.984;2023-03-31T04:41:15;14.90;;;8.40;;
54923;SDS011;40825;52.270;20.984;2023-03-31T04:43:41;15.20;;;8.30;;
54923;SDS011;40825;52.270;20.984;2023-03-31T04:46:07;15.30;;;8.10;;
54923;SDS011;40825;52.270;20.984;2023-03-31T04:48:33;13.40;;;7.90;;
54923;SDS011;40825;52.270;20.984;2023-03-31T04:50:59;14.40;;;8.50;;
54923;SDS011;40825;52.270;20.984;2023-03-31T04:53:25;14.70;;;8.20;;
54923;SDS011;40825;52.270;20.984;2023-03-31T04:55:51;16.30;;;8.50;;
54923;SDS011;40825;52.270;20.984;2023-03-31T04:58:16;18.20;;;9.30;;
54923;SDS011;40825;52.270;20.984;2023-03-31T05:00:42;16.70;;;10.10;;
54923;SDS011;40825;52.270;20.984;2023-03-31T05:03:07;14.60;;;8.60;;
54923;SDS011;40825;52.270;20.984;2023-03-31T05:05:34;16.90;;;8.90;;
54923;SDS011;40825;52.270;20.984;2023-03-31T05:08:00;16.20;;;8.50;;
54923;SDS011;40825;52.270;20.984;2023-03-31T05:10:26;16.70;;;8.40;;
54923;SDS011;40825;52.270;20.984;2023-03-31T05:12:53;17.30;;;8.90;;
54923;SDS011;40825;52.270;20.984;2023-03-31T05:15:18;16.70;;;8.90;;
54923;SDS011;40825;52.270;20.984;2023-03-31T05:17:44;16.80;;;9.40;;
54923;SDS011;40825;52.270;20.984;2023-03-31T05:20:10;15.30;;;8.60;;
54923;SDS011;40825;52.270;20.984;2023-03-31T05:22:38;16.70;;;9.40;;
54923;SDS011;40825;52.270;20.984;2023-03-31T05:25:05;16.70;;;9.20;;
54923;SDS011;40825;52.270;20.984;2023-03-31T05:27:32;16.30;;;8.80;;
54923;SDS011;40825;52.270;20.984;2023-03-31T05:29:59;17.00;;;9.10;;
54923;SDS011;40825;52.270;20.984;2023-03-31T05:32:25;16.40;;;9.00;;
54923;SDS011;40825;52.270;20.984;2023-03-31T05:34:51;16.00;;;10.30;;
54923;SDS011;40825;52.270;20.984;2023-03-31T05:37:21;17.30;;;10.40;;
54923;SDS011;40825;52.270;20.984;2023-03-31T05:39:50;20.10;;;10.40;;
54923;SDS011;40825;52.270;20.984;2023-03-31T05:42:17;16.50;;;9.80;;
54923;SDS011;40825;52.270;20.984;2023-03-31T05:44:43;20.20;;;9.90;;
54923;SDS011;40825;52.270;20.984;2023-03-31T05:47:08;16.50;;;10.00;;
54923;SDS011;40825;52.270;20.984;2023-03-31T05:49:34;16.20;;;9.20;;
54923;SDS011;40825;52.270;20.984;2023-03-31T05:52:00;16.40;;;9.30;;
54923;SDS011;40825;52.270;20.984;2023-03-31T05:54:26;22.30;;;10.70;;
54923;SDS011;40825;52.270;20.984;2023-03-31T05:56:52;17.70;;;10.30;;
54923;SDS011;40825;52.270;20.984;2023-03-31T05:59:17;19.10;;;9.50;;
54923;SDS011;40825;52.270;20.984;2023-03-31T06:01:43;18.70;;;9.70;;
54923;SDS011;40825;52.270;20.984;2023-03-31T06:04:08;17.10;;;9.80;;
54923;SDS011;40825;52.270;20.984;2023-03-31T06:06:34;15.50;;;8.80;;
54923;SDS011;40825;52.270;20.984;2023-03-31T06:09:02;15.60;;;9.10;;
54923;SDS011;40825;52.270;20.984;2023-03-31T06:11:28;18.90;;;10.40;;
54923;SDS011;40825;52.270;20.984;2023-03-31T06:13:54;17.90;;;10.90;;
54923;SDS011;40825;52.270;20.984;2023-03-31T06:16:20;15.10;;;9.10;;
54923;SDS011;40825;52.270;20.984;2023-03-31T06:18:45;18.90;;;10.10;;
54923;SDS011;40825;52.270;20.984;2023-03-31T06:21:12;15.90;;;9.50;;
54923;SDS011;40825;52.270;20.984;2023-03-31T06:23:40;17.90;;;9.40;;
54923;SDS011;40825;52.270;20.984;2023-03-31T06:26:15;16.00;;;9.10;;
54923;SDS011;40825;52.270;20.984;2023-03-31T06:28:43;16.70;;;9.10;;
54923;SDS011;40825;52.270;20.984;2023-03-31T06:31:11;16.40;;;9.10;;
54923;SDS011;40825;52.270;20.984;2023-03-31T06:33:39;16.40;;;9.10;;
54923;SDS011;40825;52.270;20.984;2023-03-31T06:36:06;16.80;;;9.70;;
54923;SDS011;40825;52.270;20.984;2023-03-31T06:38:32;15.70;;;10.00;;
54923;SDS011;40825;52.270;20.984;2023-03-31T06:40:59;16.90;;;9.30;;
54923;SDS011;40825;52.270;20.984;2023-03-31T06:43:25;15.20;;;8.90;;
54923;SDS011;40825;52.270;20.984;2023-03-31T06:45:51;15.50;;;9.30;;
54923;SDS011;40825;52.270;20.984;2023-03-31T06:48:18;17.20;;;9.70;;
54923;SDS011;40825;52.270;20.984;2023-03-31T06:50:44;15.60;;;9.50;;
54923;SDS011;40825;52.270;20.984;2023-03-31T06:53:09;14.10;;;10.40;;
54923;SDS011;40825;52.270;20.984;2023-03-31T06:55:35;16.00;;;9.20;;
54923;SDS011;40825;52.270;20.984;2023-03-31T06:58:01;15.60;;;9.90;;
54923;SDS011;40825;52.270;20.984;2023-03-31T07:00:27;15.10;;;10.10;;
54923;SDS011;40825;52.270;20.984;2023-03-31T07:02:53;17.00;;;11.10;;
54923;SDS011;40825;52.270;20.984;2023-03-31T07:05:18;16.80;;;11.10;;
54923;SDS011;40825;52.270;20.984;2023-03-31T07:07:51;15.40;;;9.90;;
54923;SDS011;40825;52.270;20.984;2023-03-31T07:10:17;16.70;;;10.40;;
54923;SDS011;40825;52.270;20.984;2023-03-31T07:12:43;17.60;;;10.40;;
54923;SDS011;40825;52.270;20.984;2023-03-31T07:15:08;17.50;;;10.10;;
54923;SDS011;40825;52.270;20.984;2023-03-31T07:17:34;19.40;;;10.90;;
54923;SDS011;40825;52.270;20.984;2023-03-31T07:20:02;16.90;;;10.70;;
54923;SDS011;40825;52.270;20.984;2023-03-31T07:22:28;16.90;;;10.80;;
54923;SDS011;40825;52.270;20.984;2023-03-31T07:24:54;15.70;;;9.70;;
54923;SDS011;40825;52.270;20.984;2023-03-31T07:27:20;18.60;;;11.10;;
54923;SDS011;40825;52.270;20.984;2023-03-31T07:29:46;15.20;;;10.70;;
54923;SDS011;40825;52.270;20.984;2023-03-31T07:32:11;18.60;;;11.70;;
54923;SDS011;40825;52.270;20.984;2023-03-31T07:34:37;17.90;;;11.30;;
54923;SDS011;40825;52.270;20.984;2023-03-31T07:37:04;19.80;;;13.00;;
54923;SDS011;40825;52.270;20.984;2023-03-31T07:39:30;18.70;;;12.20;;
54923;SDS011;40825;52.270;20.984;2023-03-31T07:41:56;21.40;;;12.40;;
54923;SDS011;40825;52.270;20.984;2023-03-31T07:44:21;19.00;;;11.80;;
54923;SDS011;40825;52.270;20.984;2023-03-31T07:46:47;19.00;;;12.30;;
54923;SDS011;40825;52.270;20.984;2023-03-31T07:49:13;17.10;;;11.80;;
54923;SDS011;40825;52.270;20.984;2023-03-31T07:51:40;17.90;;;11.00;;
54923;SDS011;40825;52.270;20.984;2023-03-31T07:54:06;17.80;;;11.40;;
54923;SDS011;40825;52.270;20.984;2023-03-31T07:56:31;21.80;;;12.50;;
54923;SDS011;40825;52.270;20.984;2023-03-31T07:58:57;19.40;;;11.90;;
54923;SDS011;40825;52.270;20.984;2023-03-31T08:01:23;18.00;;;11.40;;
54923;SDS011;40825;52.270;20.984;2023-03-31T08:03:50;16.90;;;10.50;;
54923;SDS011;40825;52.270;20.984;2023-03-31T08:08:44;15.40;;;9.60;;
54923;SDS011;40825;52.270;20.984;2023-03-31T08:11:10;14.90;;;9.20;;
54923;SDS011;40825;52.270;20.984;2023-03-31T08:13:35;13.30;;;8.20;;
54923;SDS011;40825;52.270;20.984;2023-03-31T08:16:01;15.00;;;7.30;;
54923;SDS011;40825;52.270;20.984;2023-03-31T08:18:27;13.90;;;8.30;;
54923;SDS011;40825;52.270;20.984;2023-03-31T08:20:53;16.40;;;9.30;;
54923;SDS011;40825;52.270;20.984;2023-03-31T08:23:19;14.00;;;8.20;;
54923;SDS011;40825;52.270;20.984;2023-03-31T08:25:44;13.70;;;8.10;;
54923;SDS011;40825;52.270;20.984;2023-03-31T08:28:09;12.80;;;7.90;;
54923;SDS011;40825;52.270;20.984;2023-03-31T08:30:38;13.80;;;9.00;;
54923;SDS011;40825;52.270;20.984;2023-03-31T08:33:04;15.70;;;8.90;;
54923;SDS011;40825;52.270;20.984;2023-03-31T08:35:32;14.20;;;8.30;;
54923;SDS011;40825;52.270;20.984;2023-03-31T08:38:00;15.30;;;9.20;;
54923;SDS011;40825;52.270;20.984;2023-03-31T08:40:26;15.90;;;8.90;;
54923;SDS011;40825;52.270;20.984;2023-03-31T08:42:56;15.20;;;8.20;;
54923;SDS011;40825;52.270;20.984;2023-03-31T08:45:30;13.70;;;8.40;;
54923;SDS011;40825;52.270;20.984;2023-03-31T08:48:04;14.80;;;8.30;;
54923;SDS011;40825;52.270;20.984;2023-03-31T08:50:41;14.10;;;8.10;;
54923;SDS011;40825;52.270;20.984;2023-03-31T08:55:53;15.70;;;10.30;;
54923;SDS011;40825;52.270;20.984;2023-03-31T09:06:40;12.60;;;7.60;;
54923;SDS011;40825;52.270;20.984;2023-03-31T09:09:10;14.00;;;7.60;;
54923;SDS011;40825;52.270;20.984;2023-03-31T09:11:55;14.80;;;8.20;;
54923;SDS011;40825;52.270;20.984;2023-03-31T09:17:19;14.70;;;9.10;;
54923;SDS011;40825;52.270;20.984;2023-03-31T09:25:35;14.30;;;7.90;;
54923;SDS011;40825;52.270;20.984;2023-03-31T09:28:08;10.70;;;6.70;;
54923;SDS011;40825;52.270;20.984;2023-03-31T09:30:52;11.60;;;6.50;;
54923;SDS011;40825;52.270;20.984;2023-03-31T09:33:27;14.30;;;7.40;;
54923;SDS011;40825;52.270;20.984;2023-03-31T09:35:59;10.90;;;6.70;;
54923;SDS011;40825;52.270;20.984;2023-03-31T09:38:25;13.20;;;7.30;;
54923;SDS011;40825;52.270;20.984;2023-03-31T09:40:58;10.40;;;6.30;;
54923;SDS011;40825;52.270;20.984;2023-03-31T09:43:27;10.80;;;6.30;;
54923;SDS011;40825;52.270;20.984;2023-03-31T09:45:54;10.60;;;6.30;;
54923;SDS011;40825;52.270;20.984;2023-03-31T09:48:22;10.90;;;6.10;;
54923;SDS011;40825;52.270;20.984;2023-03-31T09:53:28;11.10;;;5.50;;
54923;SDS011;40825;52.270;20.984;2023-03-31T09:56:03;10.80;;;5.70;;
54923;SDS011;40825;52.270;20.984;2023-03-31T09:58:42;8.90;;;5.10;;
54923;SDS011;40825;52.270;20.984;2023-03-31T10:01:13;10.20;;;5.50;;
54923;SDS011;40825;52.270;20.984;2023-03-31T10:03:48;10.90;;;5.00;;
54923;SDS011;40825;52.270;20.984;2023-03-31T10:06:18;10.60;;;4.80;;
54923;SDS011;40825;52.270;20.984;2023-03-31T10:11:22;10.10;;;5.20;;
54923;SDS011;40825;52.270;20.984;2023-03-31T10:13:50;12.10;;;5.00;;
54923;SDS011;40825;52.270;20.984;2023-03-31T10:18:55;10.40;;;4.70;;
54923;SDS011;40825;52.270;20.984;2023-03-31T10:21:37;11.00;;;4.50;;
54923;SDS011;40825;52.270;20.984;2023-03-31T10:24:07;7.90;;;3.60;;
54923;SDS011;40825;52.270;20.984;2023-03-31T10:26:34;9.10;;;3.60;;
54923;SDS011;40825;52.270;20.984;2023-03-31T10:29:01;8.90;;;3.00;;
54923;SDS011;40825;52.270;20.984;2023-03-31T10:31:34;10.10;;;3.40;;
54923;SDS011;40825;52.270;20.984;2023-03-31T10:34:08;10.30;;;3.00;;
54923;SDS011;40825;52.270;20.984;2023-03-31T10:36:50;7.60;;;3.30;;
54923;SDS011;40825;52.270;20.984;2023-03-31T10:39:16;11.30;;;3.50;;
54923;SDS011;40825;52.270;20.984;2023-03-31T10:41:47;9.80;;;3.00;;
54923;SDS011;40825;52.270;20.984;2023-03-31T10:44:34;8.20;;;2.80;;
54923;SDS011;40825;52.270;20.984;2023-03-31T10:49:40;10.50;;;3.10;;
54923;SDS011;40825;52.270;20.984;2023-03-31T10:52:42;6.20;;;2.20;;
54923;SDS011;40825;52.270;20.984;2023-03-31T10:55:10;6.80;;;2.70;;
54923;SDS011;40825;52.270;20.984;2023-03-31T10:57:43;7.00;;;2.70;;
54923;SDS011;40825;52.270;20.984;2023-03-31T11:06:25;11.10;;;3.70;;
54923;SDS011;40825;52.270;20.984;2023-03-31T11:12:20;7.60;;;2.60;;
54923;SDS011;40825;52.270;20.984;2023-03-31T11:17:25;7.70;;;3.00;;
54923;SDS011;40825;52.270;20.984;2023-03-31T11:20:10;10.00;;;2.90;;
54923;SDS011;40825;52.270;20.984;2023-03-31T11:28:44;8.10;;;3.50;;
54923;SDS011;40825;52.270;20.984;2023-03-31T11:42:44;8.10;;;3.80;;
54923;SDS011;40825;52.270;20.984;2023-03-31T11:45:14;6.90;;;3.50;;
54923;SDS011;40825;52.270;20.984;2023-03-31T11:47:44;7.90;;;3.20;;
54923;SDS011;40825;52.270;20.984;2023-03-31T11:50:20;7.80;;;3.20;;
54923;SDS011;40825;52.270;20.984;2023-03-31T11:52:52;9.00;;;3.90;;
54923;SDS011;40825;52.270;20.984;2023-03-31T11:55:27;8.10;;;3.30;;
54923;SDS011;40825;52.270;20.984;2023-03-31T12:00:28;7.50;;;3.20;;
54923;SDS011;40825;52.270;20.984;2023-03-31T12:06:08;8.90;;;3.30;;
54923;SDS011;40825;52.270;20.984;2023-03-31T12:16:42;8.10;;;3.10;;
54923;SDS011;40825;52.270;20.984;2023-03-31T12:19:16;7.80;;;3.10;;
54923;SDS011;40825;52.270;20.984;2023-03-31T12:22:30;6.40;;;3.10;;
54923;SDS011;40825;52.270;20.984;2023-03-31T12:24:58;8.30;;;3.10;;
54923;SDS011;40825;52.270;20.984;2023-03-31T12:30:09;9.20;;;2.90;;
54923;SDS011;40825;52.270;20.984;2023-03-31T12:32:53;7.70;;;2.90;;
54923;SDS011;40825;52.270;20.984;2023-03-31T12:38:04;9.30;;;3.00;;
54923;SDS011;40825;52.270;20.984;2023-03-31T12:49:19;8.50;;;2.50;;
54923;SDS011;40825;52.270;20.984;2023-03-31T12:59:34;7.50;;;2.50;;
54923;SDS011;40825;52.270;20.984;2023-03-31T13:04:40;7.10;;;2.40;;
54923;SDS011;40825;52.270;20.984;2023-03-31T13:09:54;7.80;;;3.00;;
54923;SDS011;40825;52.270;20.984;2023-03-31T13:15:37;6.30;;;2.10;;
54923;SDS011;40825;52.270;20.984;2023-03-31T13:18:04;6.90;;;2.00;;
54923;SDS011;40825;52.270;20.984;2023-03-31T13:33:29;7.70;;;2.50;;
54923;SDS011;40825;52.270;20.984;2023-03-31T13:39:07;7.40;;;2.20;;
54923;SDS011;40825;52.270;20.984;2023-03-31T13:41:49;5.70;;;2.40;;
54923;SDS011;40825;52.270;20.984;2023-03-31T13:47:03;5.80;;;2.20;;
54923;SDS011;40825;52.270;20.984;2023-03-31T14:08:49;7.60;;;2.50;;
54923;SDS011;40825;52.270;20.984;2023-03-31T14:16:34;5.80;;;2.00;;
54923;SDS011;40825;52.270;20.984;2023-03-31T14:19:18;6.40;;;2.10;;
54923;SDS011;40825;52.270;20.984;2023-03-31T14:22:11;6.40;;;1.90;;
54923;SDS011;40825;52.270;20.984;2023-03-31T14:33:59;6.00;;;1.80;;
54923;SDS011;40825;52.270;20.984;2023-03-31T14:36:59;6.60;;;2.00;;
54923;SDS011;40825;52.270;20.984;2023-03-31T14:41:56;6.40;;;1.80;;
54923;SDS011;40825;52.270;20.984;2023-03-31T14:44:43;6.20;;;2.00;;
54923;SDS011;40825;52.270;20.984;2023-03-31T14:47:12;5.80;;;1.80;;
54923;SDS011;40825;52.270;20.984;2023-03-31T14:49:39;6.80;;;2.10;;
54923;SDS011;40825;52.270;20.984;2023-03-31T14:52:15;6.10;;;1.60;;
54923;SDS011;40825;52.270;20.984;2023-03-31T14:54:44;5.20;;;2.00;;
54923;SDS011;40825;52.270;20.984;2023-03-31T14:57:15;6.50;;;2.30;;
54923;SDS011;40825;52.270;20.984;2023-03-31T14:59:45;6.80;;;2.10;;
54923;SDS011;40825;52.270;20.984;2023-03-31T15:02:17;7.40;;;2.30;;
54923;SDS011;40825;52.270;20.984;2023-03-31T15:04:51;6.00;;;2.20;;
54923;SDS011;40825;52.270;20.984;2023-03-31T15:07:18;5.40;;;1.80;;
54923;SDS011;40825;52.270;20.984;2023-03-31T15:09:45;5.00;;;1.90;;
54923;SDS011;40825;52.270;20.984;2023-03-31T15:12:14;6.20;;;1.90;;
54923;SDS011;40825;52.270;20.984;2023-03-31T15:14:44;7.30;;;2.10;;
54923;SDS011;40825;52.270;20.984;2023-03-31T15:17:20;7.90;;;2.20;;
54923;SDS011;40825;52.270;20.984;2023-03-31T15:19:57;5.70;;;2.40;;
54923;SDS011;40825;52.270;20.984;2023-03-31T15:22:24;8.40;;;2.50;;
54923;SDS011;40825;52.270;20.984;2023-03-31T15:24:52;8.60;;;2.30;;
54923;SDS011;40825;52.270;20.984;2023-03-31T15:27:38;4.90;;;2.00;;
54923;SDS011;40825;52.270;20.984;2023-03-31T15:30:15;6.10;;;2.40;;
54923;SDS011;40825;52.270;20.984;2023-03-31T15:32:43;5.60;;;1.80;;
54923;SDS011;40825;52.270;20.984;2023-03-31T15:35:30;4.20;;;1.50;;
54923;SDS011;40825;52.270;20.984;2023-03-31T15:37:58;5.50;;;2.20;;
54923;SDS011;40825;52.270;20.984;2023-03-31T15:40:34;4.90;;;2.10;;
54923;SDS011;40825;52.270;20.984;2023-03-31T15:43:07;5.80;;;2.50;;
54923;SDS011;40825;52.270;20.984;2023-03-31T15:46:00;4.80;;;2.10;;
54923;SDS011;40825;52.270;20.984;2023-03-31T15:48:32;3.60;;;1.80;;
54923;SDS011;40825;52.270;20.984;2023-03-31T15:50:59;3.80;;;2.20;;
54923;SDS011;40825;52.270;20.984;2023-03-31T15:55:59;4.60;;;1.60;;
54923;SDS011;40825;52.270;20.984;2023-03-31T16:01:34;4.10;;;1.60;;
54923;SDS011;40825;52.270;20.984;2023-03-31T16:04:11;4.40;;;1.60;;
54923;SDS011;40825;52.270;20.984;2023-03-31T16:06:42;2.20;;;1.40;;
54923;SDS011;40825;52.270;20.984;2023-03-31T16:11:51;4.70;;;2.20;;
54923;SDS011;40825;52.270;20.984;2023-03-31T16:17:04;3.50;;;1.40;;
54923;SDS011;40825;52.270;20.984;2023-03-31T16:19:43;3.20;;;1.00;;
54923;SDS011;40825;52.270;20.984;2023-03-31T16:22:13;5.40;;;1.50;;
54923;SDS011;40825;52.270;20.984;2023-03-31T16:24:45;4.30;;;1.70;;
54923;SDS011;40825;52.270;20.984;2023-03-31T16:27:18;5.50;;;2.10;;
54923;SDS011;40825;52.270;20.984;2023-03-31T16:29:44;3.60;;;1.80;;
54923;SDS011;40825;52.270;20.984;2023-03-31T16:32:14;4.10;;;1.60;;
54923;SDS011;40825;52.270;20.984;2023-03-31T16:35:00;4.20;;;1.80;;
54923;SDS011;40825;52.270;20.984;2023-03-31T16:37:28;3.80;;;1.50;;
54923;SDS011;40825;52.270;20.984;2023-03-31T16:39:53;3.70;;;1.30;;
54923;SDS011;40825;52.270;20.984;2023-03-31T16:42:19;2.90;;;1.00;;
54923;SDS011;40825;52.270;20.984;2023-03-31T16:44:45;3.50;;;1.30;;
54923;SDS011;40825;52.270;20.984;2023-03-31T16:47:11;3.40;;;1.10;;
54923;SDS011;40825;52.270;20.984;2023-03-31T16:49:38;3.00;;;1.60;;
54923;SDS011;40825;52.270;20.984;2023-03-31T16:52:03;3.00;;;1.10;;
54923;SDS011;40825;52.270;20.984;2023-03-31T16:54:30;3.00;;;1.30;;
54923;SDS011;40825;52.270;20.984;2023-03-31T16:56:56;3.50;;;1.20;;
54923;SDS011;40825;52.270;20.984;2023-03-31T16:59:22;3.00;;;1.00;;
54923;SDS011;40825;52.270;20.984;2023-03-31T17:01:49;6.00;;;1.70;;
54923;SDS011;40825;52.270;20.984;2023-03-31T17:04:16;3.80;;;1.10;;
54923;SDS011;40825;52.270;20.984;2023-03-31T17:06:41;3.70;;;1.10;;
54923;SDS011;40825;52.270;20.984;2023-03-31T17:09:07;5.40;;;1.00;;
54923;SDS011;40825;52.270;20.984;2023-03-31T17:11:32;4.40;;;1.20;;
54923;SDS011;40825;52.270;20.984;2023-03-31T17:13:58;6.50;;;1.30;;
54923;SDS011;40825;52.270;20.984;2023-03-31T17:16:24;3.30;;;1.40;;
54923;SDS011;40825;52.270;20.984;2023-03-31T17:18:50;2.40;;;1.20;;
54923;SDS011;40825;52.270;20.984;2023-03-31T17:21:17;2.50;;;0.80;;
54923;SDS011;40825;52.270;20.984;2023-03-31T17:23:43;2.70;;;0.90;;
54923;SDS011;40825;52.270;20.984;2023-03-31T17:26:09;2.40;;;0.50;;
54923;SDS011;40825;52.270;20.984;2023-03-31T17:28:36;2.30;;;1.20;;
54923;SDS011;40825;52.270;20.984;2023-03-31T17:31:24;3.20;;;1.30;;
54923;SDS011;40825;52.270;20.984;2023-03-31T17:33:48;2.60;;;1.30;;
54923;SDS011;40825;52.270;20.984;2023-03-31T17:36:14;2.60;;;1.00;;
54923;SDS011;40825;52.270;20.984;2023-03-31T17:38:41;2.90;;;0.90;;
54923;SDS011;40825;52.270;20.984;2023-03-31T17:41:08;3.90;;;1.00;;
54923;SDS011;40825;52.270;20.984;2023-03-31T17:43:35;4.40;;;1.20;;
54923;SDS011;40825;52.270;20.984;2023-03-31T17:46:06;4.60;;;1.40;;
54923;SDS011;40825;52.270;20.984;2023-03-31T17:48:37;4.30;;;1.90;;
54923;SDS011;40825;52.270;20.984;2023-03-31T17:51:04;7.60;;;2.70;;
54923;SDS011;40825;52.270;20.984;2023-03-31T17:53:34;7.90;;;3.30;;
54923;SDS011;40825;52.270;20.984;2023-03-31T17:56:00;7.50;;;3.20;;
54923;SDS011;40825;52.270;20.984;2023-03-31T17:58:28;9.10;;;3.40;;
54923;SDS011;40825;52.270;20.984;2023-03-31T18:00:55;7.60;;;3.10;;
54923;SDS011;40825;52.270;20.984;2023-03-31T18:03:21;7.80;;;2.90;;
54923;SDS011;40825;52.270;20.984;2023-03-31T18:05:47;6.20;;;2.90;;
54923;SDS011;40825;52.270;20.984;2023-03-31T18:08:13;9.00;;;3.00;;
54923;SDS011;40825;52.270;20.984;2023-03-31T18:10:38;7.20;;;2.90;;
54923;SDS011;40825;52.270;20.984;2023-03-31T18:13:04;7.60;;;2.80;;
54923;SDS011;40825;52.270;20.984;2023-03-31T18:15:30;7.00;;;3.10;;
54923;SDS011;40825;52.270;20.984;2023-03-31T18:17:56;6.50;;;2.50;;
54923;SDS011;40825;52.270;20.984;2023-03-31T18:20:22;8.50;;;2.90;;
54923;SDS011;40825;52.270;20.984;2023-03-31T18:22:47;7.10;;;3.30;;
54923;SDS011;40825;52.270;20.984;2023-03-31T18:25:13;8.40;;;3.00;;
54923;SDS011;40825;52.270;20.984;2023-03-31T18:27:40;9.00;;;2.80;;
54923;SDS011;40825;52.270;20.984;2023-03-31T18:30:06;7.00;;;3.10;;
54923;SDS011;40825;52.270;20.984;2023-03-31T18:32:32;6.70;;;3.20;;
54923;SDS011;40825;52.270;20.984;2023-03-31T18:34:58;6.50;;;3.50;;